HIDDEN DAM (HENSLEY) (HID)

Elevation: 561' · FRESNO R basin · Operator: US Army Corps of Engineers

Provisional data, subject to change.
Query executed Thursday at 16:13:42   clock

Select a sensor type for a plot of data.
Note: Reservoir Flows are daily averages.

Earlier

Date RES ELE    STORAGE    RES CHG    TOC STO    OUTFLOW    INFLOW    PPT INC    TEMP MN    TEMP MX    WINDLEN    EVP PAN   
 FEET   AF   AF   AF   CFS   CFS   INCHES   DEG F   DEG F   MILES   INCHES  
03/25/2014 455.16 7275 15 55200 0 10 0.00 51 76 -- 0.20
03/26/2014 455.22 7297 22 55000 0 12 0.02 52 60 -- 0.10
03/27/2014 455.28 7319 22 55600 0 13 0.02 43 66 -- 0.15
03/28/2014 455.38 7355 36 56400 0 20 0.01 46 72 -- 0.18
03/29/2014 455.47 7388 33 57000 0 18 0.25 49 74 -- 0.13
03/30/2014 455.56 7421 33 57300 0 18 0.15 45 62 -- 0.14
03/31/2014 455.67 7462 41 57000 0 22 0.24 43 65 -- 0.11
04/01/2014 455.79 7507 45 57100 0 24 0.22 39 60 -- 0.09
04/02/2014 455.94 7563 56 56500 0 30 0.11 42 60 -- 0.13
04/03/2014 456.12 7630 67 57400 0 36 0.01 42 67 -- 0.17
04/04/2014 456.24 7675 45 58500 0 24 0.00 44 65 -- 0.16
04/05/2014 456.35 7717 42 59500 0 23 0.00 40 68 -- 0.17
04/06/2014 456.45 7755 38 60300 0 21 0.01 46 74 -- 0.20
04/07/2014 456.54 7789 34 61000 0 20 0.03 52 89 -- 0.24
04/08/2014 456.63 7823 34 62000 0 20 0.00 57 88 -- 0.25
04/09/2014 456.72 7858 35 63000 0 21 0.01 56 90 -- 0.26
04/10/2014 456.82 7896 38 64000 0 22 0.00 56 88 -- 0.27
04/11/2014 456.90 7927 31 64900 0 19 0.00 61 89 -- 0.26
04/12/2014 456.99 7962 35 65900 0 20 0.00 54 78 -- 0.23
04/13/2014 457.06 7989 27 66900 0 16 0.00 50 78 -- 0.22
04/14/2014 457.14 8020 31 67800 0 18 0.00 55 86 -- 0.25
04/15/2014 457.20 8043 23 68700 0 15 0.00 59 87 -- 0.29
04/16/2014 457.26 8067 24 69300 0 15 0.00 52 85 -- 0.27
04/17/2014 457.32 8090 23 70200 0 14 0.00 56 86 -- 0.23
04/18/2014 457.37 8110 20 71200 0 13 0.00 58 82 -- 0.25
04/19/2014 457.41 8126 16 72100 0 11 0.00 56 83 -- 0.26
04/20/2014 457.46 8145 19 73000 0 13 0.00 49 85 -- 0.26
04/21/2014 457.50 8161 16 73900 0 10 0.00 56 81 -- 0.19
04/22/2014 457.54 8177 16 74800 0 11 0.00 53 68 -- 0.23
04/23/2014 457.57 8188 11 75700 0 8 0.00 43 73 -- 0.22
04/24/2014 -- -- -- -- -- -- -- -- -- -- --

Later | Latest

Warning! This data is preliminary and subject to revision.

Download Data Now Download Data Now | Show HID Map | Plot HID Data | 1 Month HID Data | Real-Time HID Data | HID Info